sensor_id;sensor_type;location;lat;lon;timestamp;P1;durP1;ratioP1;P2;durP2;ratioP2
15624;SDS011;7912;51.376;6.126;2023-05-17T00:02:11;7.47;;;4.13;;
15624;SDS011;7912;51.376;6.126;2023-05-17T00:04:38;8.43;;;4.20;;
15624;SDS011;7912;51.376;6.126;2023-05-17T00:07:05;9.30;;;4.00;;
15624;SDS011;7912;51.376;6.126;2023-05-17T00:09:32;5.60;;;3.67;;
15624;SDS011;7912;51.376;6.126;2023-05-17T00:12:00;5.07;;;3.30;;
15624;SDS011;7912;51.376;6.126;2023-05-17T00:14:28;8.87;;;3.67;;
15624;SDS011;7912;51.376;6.126;2023-05-17T00:16:55;5.30;;;3.70;;
15624;SDS011;7912;51.376;6.126;2023-05-17T00:19:23;7.27;;;3.87;;
15624;SDS011;7912;51.376;6.126;2023-05-17T00:21:50;6.33;;;3.63;;
15624;SDS011;7912;51.376;6.126;2023-05-17T00:24:18;4.97;;;3.37;;
15624;SDS011;7912;51.376;6.126;2023-05-17T00:26:47;6.97;;;3.47;;
15624;SDS011;7912;51.376;6.126;2023-05-17T00:29:14;5.90;;;4.30;;
15624;SDS011;7912;51.376;6.126;2023-05-17T00:31:42;6.97;;;3.60;;
15624;SDS011;7912;51.376;6.126;2023-05-17T00:34:09;5.67;;;3.53;;
15624;SDS011;7912;51.376;6.126;2023-05-17T00:36:36;6.33;;;4.00;;
15624;SDS011;7912;51.376;6.126;2023-05-17T00:39:03;7.40;;;4.50;;
15624;SDS011;7912;51.376;6.126;2023-05-17T00:41:31;8.43;;;3.73;;
15624;SDS011;7912;51.376;6.126;2023-05-17T00:43:58;7.70;;;4.00;;
15624;SDS011;7912;51.376;6.126;2023-05-17T00:46:27;6.73;;;3.73;;
15624;SDS011;7912;51.376;6.126;2023-05-17T00:48:54;7.97;;;3.80;;
15624;SDS011;7912;51.376;6.126;2023-05-17T00:51:22;8.27;;;4.33;;
15624;SDS011;7912;51.376;6.126;2023-05-17T00:53:49;7.87;;;3.83;;
15624;SDS011;7912;51.376;6.126;2023-05-17T00:56:18;9.57;;;4.20;;
15624;SDS011;7912;51.376;6.126;2023-05-17T00:58:45;6.77;;;4.30;;
15624;SDS011;7912;51.376;6.126;2023-05-17T01:01:13;8.83;;;3.93;;
15624;SDS011;7912;51.376;6.126;2023-05-17T01:03:41;9.57;;;4.93;;
15624;SDS011;7912;51.376;6.126;2023-05-17T01:06:09;10.47;;;4.40;;
15624;SDS011;7912;51.376;6.126;2023-05-17T01:08:36;8.17;;;4.90;;
15624;SDS011;7912;51.376;6.126;2023-05-17T01:11:11;11.93;;;4.40;;
15624;SDS011;7912;51.376;6.126;2023-05-17T01:17:15;7.83;;;4.63;;
15624;SDS011;7912;51.376;6.126;2023-05-17T01:28:21;9.27;;;5.13;;
15624;SDS011;7912;51.376;6.126;2023-05-17T01:30:51;8.17;;;4.37;;
15624;SDS011;7912;51.376;6.126;2023-05-17T01:33:19;10.70;;;5.40;;
15624;SDS011;7912;51.376;6.126;2023-05-17T01:35:47;7.27;;;4.57;;
15624;SDS011;7912;51.376;6.126;2023-05-17T01:38:14;9.27;;;4.83;;
15624;SDS011;7912;51.376;6.126;2023-05-17T01:40:46;6.43;;;4.47;;
15624;SDS011;7912;51.376;6.126;2023-05-17T01:43:25;8.63;;;4.43;;
15624;SDS011;7912;51.376;6.126;2023-05-17T01:46:14;9.40;;;5.00;;
15624;SDS011;7912;51.376;6.126;2023-05-17T01:49:02;12.20;;;5.50;;
15624;SDS011;7912;51.376;6.126;2023-05-17T01:51:56;7.20;;;4.13;;
15624;SDS011;7912;51.376;6.126;2023-05-17T01:54:45;10.23;;;5.33;;
15624;SDS011;7912;51.376;6.126;2023-05-17T01:57:19;12.80;;;4.70;;
15624;SDS011;7912;51.376;6.126;2023-05-17T01:59:54;10.77;;;4.90;;
15624;SDS011;7912;51.376;6.126;2023-05-17T02:02:31;11.83;;;5.13;;
15624;SDS011;7912;51.376;6.126;2023-05-17T02:04:58;7.80;;;4.70;;
15624;SDS011;7912;51.376;6.126;2023-05-17T02:07:25;7.70;;;4.57;;
15624;SDS011;7912;51.376;6.126;2023-05-17T02:09:52;7.40;;;4.73;;
15624;SDS011;7912;51.376;6.126;2023-05-17T02:12:20;10.03;;;4.90;;
15624;SDS011;7912;51.376;6.126;2023-05-17T02:14:47;5.33;;;4.50;;
15624;SDS011;7912;51.376;6.126;2023-05-17T02:17:15;11.30;;;5.03;;
15624;SDS011;7912;51.376;6.126;2023-05-17T02:19:43;10.07;;;4.93;;
15624;SDS011;7912;51.376;6.126;2023-05-17T02:22:10;9.47;;;4.73;;
15624;SDS011;7912;51.376;6.126;2023-05-17T02:24:37;7.83;;;5.00;;
15624;SDS011;7912;51.376;6.126;2023-05-17T02:27:04;7.77;;;4.63;;
15624;SDS011;7912;51.376;6.126;2023-05-17T02:29:33;6.97;;;4.60;;
15624;SDS011;7912;51.376;6.126;2023-05-17T02:32:03;8.83;;;4.57;;
15624;SDS011;7912;51.376;6.126;2023-05-17T02:34:31;10.83;;;5.10;;
15624;SDS011;7912;51.376;6.126;2023-05-17T02:36:58;10.37;;;5.90;;
15624;SDS011;7912;51.376;6.126;2023-05-17T02:39:26;6.90;;;4.87;;
15624;SDS011;7912;51.376;6.126;2023-05-17T02:41:53;12.07;;;4.90;;
15624;SDS011;7912;51.376;6.126;2023-05-17T02:44:20;8.00;;;4.67;;
15624;SDS011;7912;51.376;6.126;2023-05-17T02:46:48;7.50;;;4.87;;
15624;SDS011;7912;51.376;6.126;2023-05-17T02:49:16;6.93;;;4.63;;
15624;SDS011;7912;51.376;6.126;2023-05-17T02:51:43;9.83;;;4.77;;
15624;SDS011;7912;51.376;6.126;2023-05-17T02:54:10;12.83;;;5.40;;
15624;SDS011;7912;51.376;6.126;2023-05-17T03:00:47;7.57;;;4.17;;
15624;SDS011;7912;51.376;6.126;2023-05-17T03:03:14;10.83;;;4.77;;
15624;SDS011;7912;51.376;6.126;2023-05-17T03:05:42;8.33;;;4.17;;
15624;SDS011;7912;51.376;6.126;2023-05-17T03:08:09;6.83;;;4.47;;
15624;SDS011;7912;51.376;6.126;2023-05-17T03:10:37;9.47;;;5.33;;
15624;SDS011;7912;51.376;6.126;2023-05-17T03:13:04;6.30;;;4.50;;
15624;SDS011;7912;51.376;6.126;2023-05-17T03:15:31;8.30;;;4.40;;
15624;SDS011;7912;51.376;6.126;2023-05-17T03:17:58;7.67;;;4.30;;
15624;SDS011;7912;51.376;6.126;2023-05-17T03:20:26;6.50;;;4.83;;
15624;SDS011;7912;51.376;6.126;2023-05-17T03:22:53;10.73;;;5.33;;
15624;SDS011;7912;51.376;6.126;2023-05-17T03:25:20;7.37;;;4.87;;
15624;SDS011;7912;51.376;6.126;2023-05-17T03:27:48;5.53;;;4.53;;
15624;SDS011;7912;51.376;6.126;2023-05-17T03:30:15;7.07;;;5.27;;
15624;SDS011;7912;51.376;6.126;2023-05-17T03:32:45;6.00;;;4.57;;
15624;SDS011;7912;51.376;6.126;2023-05-17T03:35:12;8.87;;;5.07;;
15624;SDS011;7912;51.376;6.126;2023-05-17T03:37:39;9.00;;;5.43;;
15624;SDS011;7912;51.376;6.126;2023-05-17T03:40:07;9.37;;;5.37;;
15624;SDS011;7912;51.376;6.126;2023-05-17T03:42:34;7.60;;;5.50;;
15624;SDS011;7912;51.376;6.126;2023-05-17T03:45:02;9.37;;;5.50;;
15624;SDS011;7912;51.376;6.126;2023-05-17T03:47:30;9.03;;;5.30;;
15624;SDS011;7912;51.376;6.126;2023-05-17T03:49:57;8.77;;;5.23;;
15624;SDS011;7912;51.376;6.126;2023-05-17T03:52:25;11.53;;;6.13;;
15624;SDS011;7912;51.376;6.126;2023-05-17T03:54:52;8.93;;;5.30;;
15624;SDS011;7912;51.376;6.126;2023-05-17T03:57:20;9.40;;;4.90;;
15624;SDS011;7912;51.376;6.126;2023-05-17T03:59:47;9.43;;;5.40;;
15624;SDS011;7912;51.376;6.126;2023-05-17T04:02:15;10.97;;;5.37;;
15624;SDS011;7912;51.376;6.126;2023-05-17T04:04:51;11.00;;;5.77;;
15624;SDS011;7912;51.376;6.126;2023-05-17T04:07:19;10.80;;;5.23;;
15624;SDS011;7912;51.376;6.126;2023-05-17T04:09:46;9.30;;;5.53;;
15624;SDS011;7912;51.376;6.126;2023-05-17T04:12:13;11.63;;;5.77;;
15624;SDS011;7912;51.376;6.126;2023-05-17T04:14:40;8.43;;;5.37;;
15624;SDS011;7912;51.376;6.126;2023-05-17T04:17:10;9.03;;;5.67;;
15624;SDS011;7912;51.376;6.126;2023-05-17T04:19:39;11.33;;;5.70;;
15624;SDS011;7912;51.376;6.126;2023-05-17T04:22:06;9.70;;;6.07;;
15624;SDS011;7912;51.376;6.126;2023-05-17T04:24:34;12.13;;;5.77;;
15624;SDS011;7912;51.376;6.126;2023-05-17T04:27:01;9.03;;;5.80;;
15624;SDS011;7912;51.376;6.126;2023-05-17T04:29:29;11.27;;;6.00;;
15624;SDS011;7912;51.376;6.126;2023-05-17T04:31:57;8.67;;;5.10;;
15624;SDS011;7912;51.376;6.126;2023-05-17T04:34:25;10.40;;;5.80;;
15624;SDS011;7912;51.376;6.126;2023-05-17T04:36:53;11.37;;;5.70;;
15624;SDS011;7912;51.376;6.126;2023-05-17T04:39:23;7.03;;;5.23;;
15624;SDS011;7912;51.376;6.126;2023-05-17T04:41:53;12.40;;;6.37;;
15624;SDS011;7912;51.376;6.126;2023-05-17T04:44:21;10.40;;;5.90;;
15624;SDS011;7912;51.376;6.126;2023-05-17T04:46:48;11.47;;;5.90;;
15624;SDS011;7912;51.376;6.126;2023-05-17T04:49:15;8.67;;;5.87;;
15624;SDS011;7912;51.376;6.126;2023-05-17T04:51:43;8.77;;;5.50;;
15624;SDS011;7912;51.376;6.126;2023-05-17T04:54:11;8.80;;;6.27;;
15624;SDS011;7912;51.376;6.126;2023-05-17T04:56:39;8.93;;;5.97;;
15624;SDS011;7912;51.376;6.126;2023-05-17T04:59:08;8.90;;;5.53;;
15624;SDS011;7912;51.376;6.126;2023-05-17T05:04:23;8.47;;;5.30;;
15624;SDS011;7912;51.376;6.126;2023-05-17T05:06:51;7.70;;;4.63;;
15624;SDS011;7912;51.376;6.126;2023-05-17T05:09:18;11.87;;;5.70;;
15624;SDS011;7912;51.376;6.126;2023-05-17T05:11:46;8.47;;;5.73;;
15624;SDS011;7912;51.376;6.126;2023-05-17T05:14:13;9.33;;;5.13;;
15624;SDS011;7912;51.376;6.126;2023-05-17T05:16:44;7.10;;;5.20;;
15624;SDS011;7912;51.376;6.126;2023-05-17T05:19:11;10.70;;;6.00;;
15624;SDS011;7912;51.376;6.126;2023-05-17T05:21:39;7.67;;;5.03;;
15624;SDS011;7912;51.376;6.126;2023-05-17T05:24:06;11.37;;;6.43;;
15624;SDS011;7912;51.376;6.126;2023-05-17T05:26:34;8.43;;;5.90;;
15624;SDS011;7912;51.376;6.126;2023-05-17T05:29:01;9.43;;;5.70;;
15624;SDS011;7912;51.376;6.126;2023-05-17T05:31:31;10.60;;;6.23;;
15624;SDS011;7912;51.376;6.126;2023-05-17T05:33:59;12.60;;;7.13;;
15624;SDS011;7912;51.376;6.126;2023-05-17T05:39:12;15.93;;;7.80;;
15624;SDS011;7912;51.376;6.126;2023-05-17T05:47:13;13.17;;;7.70;;
15624;SDS011;7912;51.376;6.126;2023-05-17T05:53:10;12.90;;;7.40;;
15624;SDS011;7912;51.376;6.126;2023-05-17T05:55:44;14.77;;;7.70;;
15624;SDS011;7912;51.376;6.126;2023-05-17T05:58:12;14.80;;;7.63;;
15624;SDS011;7912;51.376;6.126;2023-05-17T06:00:39;10.20;;;7.20;;
15624;SDS011;7912;51.376;6.126;2023-05-17T06:03:09;11.90;;;7.23;;
15624;SDS011;7912;51.376;6.126;2023-05-17T06:05:37;12.67;;;7.10;;
15624;SDS011;7912;51.376;6.126;2023-05-17T06:08:05;12.47;;;6.50;;
15624;SDS011;7912;51.376;6.126;2023-05-17T06:10:35;11.63;;;6.70;;
15624;SDS011;7912;51.376;6.126;2023-05-17T06:13:02;15.57;;;7.10;;
15624;SDS011;7912;51.376;6.126;2023-05-17T06:15:32;14.27;;;6.60;;
15624;SDS011;7912;51.376;6.126;2023-05-17T06:18:01;11.87;;;5.93;;
15624;SDS011;7912;51.376;6.126;2023-05-17T06:20:29;10.10;;;5.90;;
15624;SDS011;7912;51.376;6.126;2023-05-17T06:22:58;11.83;;;5.73;;
15624;SDS011;7912;51.376;6.126;2023-05-17T06:25:25;13.50;;;6.30;;
15624;SDS011;7912;51.376;6.126;2023-05-17T06:27:53;11.10;;;5.33;;
15624;SDS011;7912;51.376;6.126;2023-05-17T06:30:20;11.60;;;5.63;;
15624;SDS011;7912;51.376;6.126;2023-05-17T06:32:47;13.03;;;4.40;;
15624;SDS011;7912;51.376;6.126;2023-05-17T06:35:15;10.13;;;3.93;;
15624;SDS011;7912;51.376;6.126;2023-05-17T06:37:42;10.40;;;4.23;;
15624;SDS011;7912;51.376;6.126;2023-05-17T06:40:09;10.70;;;4.00;;
15624;SDS011;7912;51.376;6.126;2023-05-17T06:42:56;9.83;;;4.47;;
15624;SDS011;7912;51.376;6.126;2023-05-17T06:45:23;9.47;;;4.47;;
15624;SDS011;7912;51.376;6.126;2023-05-17T06:47:52;13.80;;;4.10;;
15624;SDS011;7912;51.376;6.126;2023-05-17T06:50:20;11.13;;;4.73;;
15624;SDS011;7912;51.376;6.126;2023-05-17T06:52:49;10.50;;;4.33;;
15624;SDS011;7912;51.376;6.126;2023-05-17T06:55:16;9.30;;;4.27;;
15624;SDS011;7912;51.376;6.126;2023-05-17T07:01:07;8.33;;;3.80;;
15624;SDS011;7912;51.376;6.126;2023-05-17T07:03:38;11.30;;;3.77;;
15624;SDS011;7912;51.376;6.126;2023-05-17T07:06:06;12.03;;;4.10;;
15624;SDS011;7912;51.376;6.126;2023-05-17T07:08:33;9.67;;;3.93;;
15624;SDS011;7912;51.376;6.126;2023-05-17T07:11:03;10.43;;;3.87;;
15624;SDS011;7912;51.376;6.126;2023-05-17T07:13:34;10.93;;;4.03;;
15624;SDS011;7912;51.376;6.126;2023-05-17T07:16:06;11.07;;;4.03;;
15624;SDS011;7912;51.376;6.126;2023-05-17T07:18:34;9.50;;;3.63;;
15624;SDS011;7912;51.376;6.126;2023-05-17T07:21:02;11.67;;;3.93;;
15624;SDS011;7912;51.376;6.126;2023-05-17T07:23:32;11.13;;;3.20;;
15624;SDS011;7912;51.376;6.126;2023-05-17T07:29:10;7.73;;;2.77;;
15624;SDS011;7912;51.376;6.126;2023-05-17T07:31:38;8.43;;;3.27;;
15624;SDS011;7912;51.376;6.126;2023-05-17T07:34:05;9.30;;;2.90;;
15624;SDS011;7912;51.376;6.126;2023-05-17T07:36:32;9.00;;;2.90;;
15624;SDS011;7912;51.376;6.126;2023-05-17T07:39:00;7.27;;;3.03;;
15624;SDS011;7912;51.376;6.126;2023-05-17T07:41:29;7.00;;;3.00;;
15624;SDS011;7912;51.376;6.126;2023-05-17T07:47:44;9.53;;;3.13;;
15624;SDS011;7912;51.376;6.126;2023-05-17T07:50:11;6.87;;;3.00;;
15624;SDS011;7912;51.376;6.126;2023-05-17T07:52:39;8.23;;;3.10;;
15624;SDS011;7912;51.376;6.126;2023-05-17T07:55:06;8.07;;;2.77;;
15624;SDS011;7912;51.376;6.126;2023-05-17T07:57:38;7.13;;;3.10;;
15624;SDS011;7912;51.376;6.126;2023-05-17T08:00:06;7.93;;;3.13;;
15624;SDS011;7912;51.376;6.126;2023-05-17T08:02:38;8.80;;;2.87;;
15624;SDS011;7912;51.376;6.126;2023-05-17T08:05:06;8.03;;;2.97;;
15624;SDS011;7912;51.376;6.126;2023-05-17T08:07:34;8.57;;;2.90;;
15624;SDS011;7912;51.376;6.126;2023-05-17T08:10:01;7.80;;;2.90;;
15624;SDS011;7912;51.376;6.126;2023-05-17T08:12:29;7.97;;;2.93;;
15624;SDS011;7912;51.376;6.126;2023-05-17T08:14:57;8.73;;;3.30;;
15624;SDS011;7912;51.376;6.126;2023-05-17T08:17:24;9.43;;;3.10;;
15624;SDS011;7912;51.376;6.126;2023-05-17T08:19:52;8.73;;;3.20;;
15624;SDS011;7912;51.376;6.126;2023-05-17T08:22:25;8.70;;;3.37;;
15624;SDS011;7912;51.376;6.126;2023-05-17T08:24:52;9.40;;;3.37;;
15624;SDS011;7912;51.376;6.126;2023-05-17T08:27:20;10.77;;;3.37;;
15624;SDS011;7912;51.376;6.126;2023-05-17T08:29:47;6.83;;;3.20;;
15624;SDS011;7912;51.376;6.126;2023-05-17T08:32:17;9.43;;;3.87;;
15624;SDS011;7912;51.376;6.126;2023-05-17T08:38:26;10.43;;;2.93;;
15624;SDS011;7912;51.376;6.126;2023-05-17T08:40:54;9.03;;;3.10;;
15624;SDS011;7912;51.376;6.126;2023-05-17T08:43:22;8.87;;;3.20;;
15624;SDS011;7912;51.376;6.126;2023-05-17T08:45:53;8.23;;;3.43;;
15624;SDS011;7912;51.376;6.126;2023-05-17T08:48:26;8.83;;;2.73;;
15624;SDS011;7912;51.376;6.126;2023-05-17T08:50:58;4.93;;;2.60;;
15624;SDS011;7912;51.376;6.126;2023-05-17T08:53:26;8.97;;;3.50;;
15624;SDS011;7912;51.376;6.126;2023-05-17T08:55:56;12.97;;;3.27;;
15624;SDS011;7912;51.376;6.126;2023-05-17T08:58:30;8.30;;;3.17;;
15624;SDS011;7912;51.376;6.126;2023-05-17T09:01:21;7.27;;;3.00;;
15624;SDS011;7912;51.376;6.126;2023-05-17T09:06:22;5.90;;;2.90;;
15624;SDS011;7912;51.376;6.126;2023-05-17T09:08:50;7.53;;;2.83;;
15624;SDS011;7912;51.376;6.126;2023-05-17T09:11:27;6.63;;;2.77;;
15624;SDS011;7912;51.376;6.126;2023-05-17T09:13:59;5.33;;;2.47;;
15624;SDS011;7912;51.376;6.126;2023-05-17T09:16:33;8.43;;;3.20;;
15624;SDS011;7912;51.376;6.126;2023-05-17T09:19:03;7.40;;;2.83;;
15624;SDS011;7912;51.376;6.126;2023-05-17T09:21:35;7.17;;;2.83;;
15624;SDS011;7912;51.376;6.126;2023-05-17T09:24:06;8.00;;;2.70;;
15624;SDS011;7912;51.376;6.126;2023-05-17T09:29:28;7.10;;;2.90;;
15624;SDS011;7912;51.376;6.126;2023-05-17T09:32:19;8.10;;;3.40;;
15624;SDS011;7912;51.376;6.126;2023-05-17T09:34:47;10.37;;;3.30;;
15624;SDS011;7912;51.376;6.126;2023-05-17T09:37:15;6.63;;;2.80;;
15624;SDS011;7912;51.376;6.126;2023-05-17T09:39:45;7.70;;;3.33;;
15624;SDS011;7912;51.376;6.126;2023-05-17T09:42:13;7.40;;;2.63;;
15624;SDS011;7912;51.376;6.126;2023-05-17T09:44:46;8.10;;;3.03;;
15624;SDS011;7912;51.376;6.126;2023-05-17T09:47:25;8.97;;;2.90;;
15624;SDS011;7912;51.376;6.126;2023-05-17T09:49:56;7.53;;;2.67;;
15624;SDS011;7912;51.376;6.126;2023-05-17T09:52:28;7.33;;;2.73;;
15624;SDS011;7912;51.376;6.126;2023-05-17T09:55:01;8.00;;;2.80;;
15624;SDS011;7912;51.376;6.126;2023-05-17T09:57:35;5.03;;;2.53;;
15624;SDS011;7912;51.376;6.126;2023-05-17T10:00:07;6.53;;;3.03;;
15624;SDS011;7912;51.376;6.126;2023-05-17T10:02:38;7.13;;;2.80;;
15624;SDS011;7912;51.376;6.126;2023-05-17T10:05:09;7.37;;;2.73;;
15624;SDS011;7912;51.376;6.126;2023-05-17T10:07:37;6.53;;;2.83;;
15624;SDS011;7912;51.376;6.126;2023-05-17T10:10:07;7.77;;;2.63;;
15624;SDS011;7912;51.376;6.126;2023-05-17T10:12:35;8.23;;;3.10;;
15624;SDS011;7912;51.376;6.126;2023-05-17T10:15:06;7.83;;;2.80;;
15624;SDS011;7912;51.376;6.126;2023-05-17T10:17:38;6.23;;;2.40;;
15624;SDS011;7912;51.376;6.126;2023-05-17T10:20:10;6.63;;;2.73;;
15624;SDS011;7912;51.376;6.126;2023-05-17T10:22:41;8.27;;;2.80;;
15624;SDS011;7912;51.376;6.126;2023-05-17T10:25:09;5.77;;;2.47;;
15624;SDS011;7912;51.376;6.126;2023-05-17T10:27:37;5.50;;;2.50;;
15624;SDS011;7912;51.376;6.126;2023-05-17T10:30:05;5.93;;;2.40;;
15624;SDS011;7912;51.376;6.126;2023-05-17T10:32:36;6.63;;;2.70;;
15624;SDS011;7912;51.376;6.126;2023-05-17T10:35:04;5.47;;;2.27;;
15624;SDS011;7912;51.376;6.126;2023-05-17T10:37:38;6.57;;;2.60;;
15624;SDS011;7912;51.376;6.126;2023-05-17T10:40:07;7.97;;;2.90;;
15624;SDS011;7912;51.376;6.126;2023-05-17T10:42:41;7.17;;;2.37;;
15624;SDS011;7912;51.376;6.126;2023-05-17T10:45:19;6.57;;;2.20;;
15624;SDS011;7912;51.376;6.126;2023-05-17T10:47:49;6.17;;;2.60;;
15624;SDS011;7912;51.376;6.126;2023-05-17T10:53:32;4.43;;;2.17;;
15624;SDS011;7912;51.376;6.126;2023-05-17T10:55:59;7.57;;;2.50;;
15624;SDS011;7912;51.376;6.126;2023-05-17T10:58:29;7.30;;;2.10;;
15624;SDS011;7912;51.376;6.126;2023-05-17T11:00:56;4.80;;;2.17;;
15624;SDS011;7912;51.376;6.126;2023-05-17T11:03:27;2.93;;;1.90;;
15624;SDS011;7912;51.376;6.126;2023-05-17T11:08:42;4.47;;;2.00;;
15624;SDS011;7912;51.376;6.126;2023-05-17T11:11:16;6.53;;;2.17;;
15624;SDS011;7912;51.376;6.126;2023-05-17T11:16:20;4.90;;;2.40;;
15624;SDS011;7912;51.376;6.126;2023-05-17T11:18:54;4.43;;;1.97;;
15624;SDS011;7912;51.376;6.126;2023-05-17T11:21:33;4.40;;;2.00;;
15624;SDS011;7912;51.376;6.126;2023-05-17T11:24:01;4.77;;;2.00;;
15624;SDS011;7912;51.376;6.126;2023-05-17T11:26:36;6.20;;;2.30;;
15624;SDS011;7912;51.376;6.126;2023-05-17T11:29:05;5.00;;;2.10;;
15624;SDS011;7912;51.376;6.126;2023-05-17T11:31:36;5.93;;;2.30;;
15624;SDS011;7912;51.376;6.126;2023-05-17T11:34:13;4.47;;;1.80;;
15624;SDS011;7912;51.376;6.126;2023-05-17T11:36:54;4.63;;;1.80;;
15624;SDS011;7912;51.376;6.126;2023-05-17T11:39:22;5.27;;;2.03;;
15624;SDS011;7912;51.376;6.126;2023-05-17T11:41:51;4.10;;;1.80;;
15624;SDS011;7912;51.376;6.126;2023-05-17T11:44:30;5.80;;;2.50;;
15624;SDS011;7912;51.376;6.126;2023-05-17T11:47:01;6.17;;;2.43;;
15624;SDS011;7912;51.376;6.126;2023-05-17T11:49:37;6.37;;;2.30;;
15624;SDS011;7912;51.376;6.126;2023-05-17T11:52:05;3.93;;;2.10;;
15624;SDS011;7912;51.376;6.126;2023-05-17T11:54:33;4.50;;;2.27;;
15624;SDS011;7912;51.376;6.126;2023-05-17T11:57:04;6.23;;;2.30;;
15624;SDS011;7912;51.376;6.126;2023-05-17T11:59:36;5.87;;;2.20;;
15624;SDS011;7912;51.376;6.126;2023-05-17T12:02:05;6.37;;;2.10;;
15624;SDS011;7912;51.376;6.126;2023-05-17T12:04:34;8.90;;;2.50;;
15624;SDS011;7912;51.376;6.126;2023-05-17T12:07:03;9.23;;;2.57;;
15624;SDS011;7912;51.376;6.126;2023-05-17T12:09:35;6.23;;;2.30;;
15624;SDS011;7912;51.376;6.126;2023-05-17T12:12:04;5.30;;;2.20;;
15624;SDS011;7912;51.376;6.126;2023-05-17T12:14:31;4.97;;;1.97;;
15624;SDS011;7912;51.376;6.126;2023-05-17T12:19:53;4.70;;;1.80;;
15624;SDS011;7912;51.376;6.126;2023-05-17T12:22:21;5.27;;;2.10;;
15624;SDS011;7912;51.376;6.126;2023-05-17T12:24:48;4.47;;;2.10;;
15624;SDS011;7912;51.376;6.126;2023-05-17T12:27:24;5.37;;;2.13;;
15624;SDS011;7912;51.376;6.126;2023-05-17T12:29:56;3.63;;;2.17;;
15624;SDS011;7912;51.376;6.126;2023-05-17T12:32:23;6.57;;;2.20;;
15624;SDS011;7912;51.376;6.126;2023-05-17T12:34:51;5.63;;;2.40;;
15624;SDS011;7912;51.376;6.126;2023-05-17T12:37:18;4.70;;;2.30;;
15624;SDS011;7912;51.376;6.126;2023-05-17T12:39:46;5.67;;;2.07;;
15624;SDS011;7912;51.376;6.126;2023-05-17T12:42:16;7.20;;;2.27;;
15624;SDS011;7912;51.376;6.126;2023-05-17T12:44:44;7.13;;;2.43;;
15624;SDS011;7912;51.376;6.126;2023-05-17T12:47:11;6.03;;;2.00;;
15624;SDS011;7912;51.376;6.126;2023-05-17T12:49:39;4.50;;;2.03;;
15624;SDS011;7912;51.376;6.126;2023-05-17T12:52:24;3.17;;;1.80;;
15624;SDS011;7912;51.376;6.126;2023-05-17T12:54:51;5.73;;;1.93;;
15624;SDS011;7912;51.376;6.126;2023-05-17T12:57:18;5.00;;;1.80;;
15624;SDS011;7912;51.376;6.126;2023-05-17T12:59:46;6.20;;;2.07;;
15624;SDS011;7912;51.376;6.126;2023-05-17T13:02:15;6.00;;;2.20;;
15624;SDS011;7912;51.376;6.126;2023-05-17T13:04:45;5.07;;;1.83;;
15624;SDS011;7912;51.376;6.126;2023-05-17T13:07:19;3.63;;;2.07;;
15624;SDS011;7912;51.376;6.126;2023-05-17T13:09:49;5.27;;;2.20;;
15624;SDS011;7912;51.376;6.126;2023-05-17T13:12:21;5.33;;;1.90;;
15624;SDS011;7912;51.376;6.126;2023-05-17T13:14:50;4.53;;;1.90;;
15624;SDS011;7912;51.376;6.126;2023-05-17T13:17:23;4.77;;;2.20;;
15624;SDS011;7912;51.376;6.126;2023-05-17T13:20:06;6.63;;;2.27;;
15624;SDS011;7912;51.376;6.126;2023-05-17T13:22:39;4.33;;;2.30;;
15624;SDS011;7912;51.376;6.126;2023-05-17T13:25:18;4.40;;;1.80;;
15624;SDS011;7912;51.376;6.126;2023-05-17T13:30:52;5.00;;;2.43;;
15624;SDS011;7912;51.376;6.126;2023-05-17T13:40:07;4.03;;;2.00;;
15624;SDS011;7912;51.376;6.126;2023-05-17T13:42:35;4.67;;;2.40;;
15624;SDS011;7912;51.376;6.126;2023-05-17T13:45:03;6.33;;;2.50;;
15624;SDS011;7912;51.376;6.126;2023-05-17T13:47:31;6.43;;;2.20;;
15624;SDS011;7912;51.376;6.126;2023-05-17T13:49:58;4.60;;;2.23;;
15624;SDS011;7912;51.376;6.126;2023-05-17T13:52:26;5.13;;;2.30;;
15624;SDS011;7912;51.376;6.126;2023-05-17T13:54:53;4.37;;;2.10;;
15624;SDS011;7912;51.376;6.126;2023-05-17T13:57:21;5.30;;;2.50;;
15624;SDS011;7912;51.376;6.126;2023-05-17T13:59:48;4.77;;;2.10;;
15624;SDS011;7912;51.376;6.126;2023-05-17T14:02:15;2.70;;;1.90;;
15624;SDS011;7912;51.376;6.126;2023-05-17T14:04:43;4.57;;;2.00;;
15624;SDS011;7912;51.376;6.126;2023-05-17T14:07:10;5.10;;;2.10;;
15624;SDS011;7912;51.376;6.126;2023-05-17T14:09:37;3.53;;;2.10;;
15624;SDS011;7912;51.376;6.126;2023-05-17T14:12:08;6.57;;;2.10;;
15624;SDS011;7912;51.376;6.126;2023-05-17T14:14:35;6.77;;;2.20;;
15624;SDS011;7912;51.376;6.126;2023-05-17T14:17:02;3.60;;;2.10;;
15624;SDS011;7912;51.376;6.126;2023-05-17T14:19:30;4.40;;;2.60;;
15624;SDS011;7912;51.376;6.126;2023-05-17T14:21:57;5.93;;;2.50;;
15624;SDS011;7912;51.376;6.126;2023-05-17T14:24:24;5.23;;;2.27;;
15624;SDS011;7912;51.376;6.126;2023-05-17T14:26:52;5.97;;;2.20;;
15624;SDS011;7912;51.376;6.126;2023-05-17T14:29:19;3.97;;;2.00;;
15624;SDS011;7912;51.376;6.126;2023-05-17T14:31:58;4.50;;;2.00;;
15624;SDS011;7912;51.376;6.126;2023-05-17T14:34:34;4.93;;;2.27;;
15624;SDS011;7912;51.376;6.126;2023-05-17T14:37:01;5.23;;;2.43;;
15624;SDS011;7912;51.376;6.126;2023-05-17T14:39:28;4.20;;;2.10;;
15624;SDS011;7912;51.376;6.126;2023-05-17T14:44:44;4.00;;;2.00;;
15624;SDS011;7912;51.376;6.126;2023-05-17T14:50:17;8.67;;;2.20;;
15624;SDS011;7912;51.376;6.126;2023-05-17T14:52:44;3.83;;;2.13;;
15624;SDS011;7912;51.376;6.126;2023-05-17T14:55:12;5.53;;;2.50;;
15624;SDS011;7912;51.376;6.126;2023-05-17T14:57:42;4.53;;;2.23;;
15624;SDS011;7912;51.376;6.126;2023-05-17T15:00:10;4.90;;;2.20;;
15624;SDS011;7912;51.376;6.126;2023-05-17T15:02:38;5.63;;;2.40;;
15624;SDS011;7912;51.376;6.126;2023-05-17T15:05:06;5.20;;;2.37;;
15624;SDS011;7912;51.376;6.126;2023-05-17T15:07:34;5.37;;;2.30;;
15624;SDS011;7912;51.376;6.126;2023-05-17T15:10:02;7.70;;;2.70;;
15624;SDS011;7912;51.376;6.126;2023-05-17T15:12:30;7.47;;;2.97;;
15624;SDS011;7912;51.376;6.126;2023-05-17T15:14:58;8.07;;;2.60;;
15624;SDS011;7912;51.376;6.126;2023-05-17T15:17:25;4.90;;;2.43;;
15624;SDS011;7912;51.376;6.126;2023-05-17T15:19:53;5.73;;;2.33;;
15624;SDS011;7912;51.376;6.126;2023-05-17T15:22:21;5.33;;;2.70;;
15624;SDS011;7912;51.376;6.126;2023-05-17T15:24:48;4.87;;;2.30;;
15624;SDS011;7912;51.376;6.126;2023-05-17T15:30:22;6.40;;;2.17;;
15624;SDS011;7912;51.376;6.126;2023-05-17T15:32:53;5.37;;;2.57;;
15624;SDS011;7912;51.376;6.126;2023-05-17T15:35:24;9.53;;;2.90;;
15624;SDS011;7912;51.376;6.126;2023-05-17T15:37:53;6.07;;;2.40;;
15624;SDS011;7912;51.376;6.126;2023-05-17T15:40:22;6.67;;;2.80;;
15624;SDS011;7912;51.376;6.126;2023-05-17T15:42:50;5.23;;;2.60;;
15624;SDS011;7912;51.376;6.126;2023-05-17T15:45:20;8.87;;;2.60;;
15624;SDS011;7912;51.376;6.126;2023-05-17T15:47:47;6.73;;;2.83;;
15624;SDS011;7912;51.376;6.126;2023-05-17T15:50:15;6.67;;;2.77;;
15624;SDS011;7912;51.376;6.126;2023-05-17T15:52:43;5.97;;;2.60;;
15624;SDS011;7912;51.376;6.126;2023-05-17T15:55:12;6.03;;;2.50;;
15624;SDS011;7912;51.376;6.126;2023-05-17T16:00:26;6.67;;;2.40;;
15624;SDS011;7912;51.376;6.126;2023-05-17T16:02:53;7.23;;;2.80;;
15624;SDS011;7912;51.376;6.126;2023-05-17T16:05:21;5.07;;;2.33;;
15624;SDS011;7912;51.376;6.126;2023-05-17T16:07:48;5.13;;;2.37;;
15624;SDS011;7912;51.376;6.126;2023-05-17T16:10:16;5.57;;;2.63;;
15624;SDS011;7912;51.376;6.126;2023-05-17T16:12:43;4.33;;;2.40;;
15624;SDS011;7912;51.376;6.126;2023-05-17T16:15:12;7.13;;;2.60;;
15624;SDS011;7912;51.376;6.126;2023-05-17T16:17:39;7.30;;;2.90;;
15624;SDS011;7912;51.376;6.126;2023-05-17T16:20:07;5.27;;;2.70;;
15624;SDS011;7912;51.376;6.126;2023-05-17T16:22:35;7.33;;;2.33;;
15624;SDS011;7912;51.376;6.126;2023-05-17T16:25:06;5.20;;;2.60;;
15624;SDS011;7912;51.376;6.126;2023-05-17T16:27:33;5.60;;;2.33;;
15624;SDS011;7912;51.376;6.126;2023-05-17T16:30:00;6.53;;;2.97;;
15624;SDS011;7912;51.376;6.126;2023-05-17T16:32:28;6.23;;;2.47;;
15624;SDS011;7912;51.376;6.126;2023-05-17T16:34:55;5.57;;;2.60;;